sensor_id;sensor_type;location;lat;lon;timestamp;P1;durP1;ratioP1;P2;durP2;ratioP2
18661;SDS011;61528;49.456;11.098;2022-07-17T00:00:39;4.57;;;4.00;;
18661;SDS011;61528;49.456;11.098;2022-07-17T00:03:11;4.57;;;4.17;;
18661;SDS011;61528;49.456;11.098;2022-07-17T00:05:37;4.37;;;3.80;;
18661;SDS011;61528;49.456;11.098;2022-07-17T00:08:04;4.87;;;3.70;;
18661;SDS011;61528;49.456;11.098;2022-07-17T00:10:31;4.57;;;3.67;;
18661;SDS011;61528;49.456;11.098;2022-07-17T00:12:58;3.90;;;3.50;;
18661;SDS011;61528;49.456;11.098;2022-07-17T00:15:24;4.30;;;3.80;;
18661;SDS011;61528;49.456;11.098;2022-07-17T00:17:50;4.97;;;4.20;;
18661;SDS011;61528;49.456;11.098;2022-07-17T00:20:17;3.80;;;3.50;;
18661;SDS011;61528;49.456;11.098;2022-07-17T00:22:43;4.20;;;3.80;;
18661;SDS011;61528;49.456;11.098;2022-07-17T00:25:09;4.63;;;3.90;;
18661;SDS011;61528;49.456;11.098;2022-07-17T00:27:36;3.63;;;3.33;;
18661;SDS011;61528;49.456;11.098;2022-07-17T00:30:03;4.47;;;3.47;;
18661;SDS011;61528;49.456;11.098;2022-07-17T00:32:29;4.07;;;3.43;;
18661;SDS011;61528;49.456;11.098;2022-07-17T00:34:56;3.90;;;3.60;;
18661;SDS011;61528;49.456;11.098;2022-07-17T00:37:23;6.27;;;3.27;;
18661;SDS011;61528;49.456;11.098;2022-07-17T00:39:49;5.80;;;3.60;;
18661;SDS011;61528;49.456;11.098;2022-07-17T00:42:16;4.37;;;3.63;;
18661;SDS011;61528;49.456;11.098;2022-07-17T00:44:43;4.20;;;3.80;;
18661;SDS011;61528;49.456;11.098;2022-07-17T00:47:13;4.00;;;3.60;;
18661;SDS011;61528;49.456;11.098;2022-07-17T00:49:39;4.03;;;3.70;;
18661;SDS011;61528;49.456;11.098;2022-07-17T00:52:06;3.57;;;3.27;;
18661;SDS011;61528;49.456;11.098;2022-07-17T00:54:35;6.10;;;3.70;;
18661;SDS011;61528;49.456;11.098;2022-07-17T00:57:03;4.17;;;3.53;;
18661;SDS011;61528;49.456;11.098;2022-07-17T00:59:31;3.80;;;3.50;;
18661;SDS011;61528;49.456;11.098;2022-07-17T01:02:08;4.77;;;3.30;;
18661;SDS011;61528;49.456;11.098;2022-07-17T01:04:34;6.67;;;5.07;;
18661;SDS011;61528;49.456;11.098;2022-07-17T01:07:01;6.07;;;4.83;;
18661;SDS011;61528;49.456;11.098;2022-07-17T01:09:28;5.17;;;4.40;;
18661;SDS011;61528;49.456;11.098;2022-07-17T01:11:55;4.83;;;4.23;;
18661;SDS011;61528;49.456;11.098;2022-07-17T01:14:22;4.27;;;3.87;;
18661;SDS011;61528;49.456;11.098;2022-07-17T01:16:48;4.37;;;3.97;;
18661;SDS011;61528;49.456;11.098;2022-07-17T01:19:14;4.30;;;3.90;;
18661;SDS011;61528;49.456;11.098;2022-07-17T01:21:42;4.20;;;3.80;;
18661;SDS011;61528;49.456;11.098;2022-07-17T01:24:08;3.73;;;3.43;;
18661;SDS011;61528;49.456;11.098;2022-07-17T01:26:35;3.60;;;3.30;;
18661;SDS011;61528;49.456;11.098;2022-07-17T01:29:02;4.20;;;3.83;;
18661;SDS011;61528;49.456;11.098;2022-07-17T01:31:28;4.70;;;3.60;;
18661;SDS011;61528;49.456;11.098;2022-07-17T01:33:54;3.83;;;3.30;;
18661;SDS011;61528;49.456;11.098;2022-07-17T01:36:24;3.20;;;2.77;;
18661;SDS011;61528;49.456;11.098;2022-07-17T01:38:50;3.13;;;2.83;;
18661;SDS011;61528;49.456;11.098;2022-07-17T01:41:17;5.20;;;2.87;;
18661;SDS011;61528;49.456;11.098;2022-07-17T01:43:43;3.30;;;3.00;;
18661;SDS011;61528;49.456;11.098;2022-07-17T01:46:09;2.73;;;2.53;;
18661;SDS011;61528;49.456;11.098;2022-07-17T01:48:35;2.60;;;2.40;;
18661;SDS011;61528;49.456;11.098;2022-07-17T01:51:02;3.20;;;2.47;;
18661;SDS011;61528;49.456;11.098;2022-07-17T01:53:28;3.60;;;2.80;;
18661;SDS011;61528;49.456;11.098;2022-07-17T01:55:55;2.43;;;2.23;;
18661;SDS011;61528;49.456;11.098;2022-07-17T01:58:22;2.43;;;2.23;;
18661;SDS011;61528;49.456;11.098;2022-07-17T02:00:48;2.80;;;2.03;;
18661;SDS011;61528;49.456;11.098;2022-07-17T02:03:16;2.60;;;2.10;;
18661;SDS011;61528;49.456;11.098;2022-07-17T02:05:42;3.30;;;2.53;;
18661;SDS011;61528;49.456;11.098;2022-07-17T02:08:09;2.80;;;2.60;;
18661;SDS011;61528;49.456;11.098;2022-07-17T02:10:35;2.70;;;2.50;;
18661;SDS011;61528;49.456;11.098;2022-07-17T02:13:01;2.87;;;2.67;;
18661;SDS011;61528;49.456;11.098;2022-07-17T02:15:27;2.03;;;1.93;;
18661;SDS011;61528;49.456;11.098;2022-07-17T02:17:53;3.67;;;2.30;;
18661;SDS011;61528;49.456;11.098;2022-07-17T02:20:20;2.43;;;2.23;;
18661;SDS011;61528;49.456;11.098;2022-07-17T02:22:46;2.57;;;2.00;;
18661;SDS011;61528;49.456;11.098;2022-07-17T02:25:13;3.43;;;2.10;;
18661;SDS011;61528;49.456;11.098;2022-07-17T02:27:39;2.67;;;2.40;;
18661;SDS011;61528;49.456;11.098;2022-07-17T02:30:07;2.80;;;2.50;;
18661;SDS011;61528;49.456;11.098;2022-07-17T02:32:34;3.30;;;2.90;;
18661;SDS011;61528;49.456;11.098;2022-07-17T02:35:00;3.47;;;3.10;;
18661;SDS011;61528;49.456;11.098;2022-07-17T02:37:27;3.63;;;3.10;;
18661;SDS011;61528;49.456;11.098;2022-07-17T02:39:53;2.87;;;2.60;;
18661;SDS011;61528;49.456;11.098;2022-07-17T02:42:23;3.37;;;2.90;;
18661;SDS011;61528;49.456;11.098;2022-07-17T02:44:50;4.57;;;3.07;;
18661;SDS011;61528;49.456;11.098;2022-07-17T02:47:23;3.77;;;3.07;;
18661;SDS011;61528;49.456;11.098;2022-07-17T02:49:50;3.90;;;3.03;;
18661;SDS011;61528;49.456;11.098;2022-07-17T02:52:17;3.37;;;2.90;;
18661;SDS011;61528;49.456;11.098;2022-07-17T02:54:43;3.97;;;2.97;;
18661;SDS011;61528;49.456;11.098;2022-07-17T02:57:10;4.87;;;2.93;;
18661;SDS011;61528;49.456;11.098;2022-07-17T02:59:36;6.03;;;3.30;;
18661;SDS011;61528;49.456;11.098;2022-07-17T03:02:03;3.40;;;3.10;;
18661;SDS011;61528;49.456;11.098;2022-07-17T03:04:30;7.27;;;3.20;;
18661;SDS011;61528;49.456;11.098;2022-07-17T03:06:56;3.87;;;3.13;;
18661;SDS011;61528;49.456;11.098;2022-07-17T03:09:23;5.10;;;3.10;;
18661;SDS011;61528;49.456;11.098;2022-07-17T03:11:49;3.57;;;3.27;;
18661;SDS011;61528;49.456;11.098;2022-07-17T03:14:15;3.90;;;3.47;;
18661;SDS011;61528;49.456;11.098;2022-07-17T03:16:42;3.80;;;3.40;;
18661;SDS011;61528;49.456;11.098;2022-07-17T03:19:08;3.87;;;3.43;;
18661;SDS011;61528;49.456;11.098;2022-07-17T03:21:34;3.50;;;3.20;;
18661;SDS011;61528;49.456;11.098;2022-07-17T03:24:01;3.50;;;3.20;;
18661;SDS011;61528;49.456;11.098;2022-07-17T03:26:27;4.03;;;3.40;;
18661;SDS011;61528;49.456;11.098;2022-07-17T03:28:54;4.70;;;3.07;;
18661;SDS011;61528;49.456;11.098;2022-07-17T03:31:20;3.43;;;3.13;;
18661;SDS011;61528;49.456;11.098;2022-07-17T03:33:46;6.20;;;3.27;;
18661;SDS011;61528;49.456;11.098;2022-07-17T03:36:12;3.40;;;3.10;;
18661;SDS011;61528;49.456;11.098;2022-07-17T03:38:38;3.97;;;3.00;;
18661;SDS011;61528;49.456;11.098;2022-07-17T03:41:05;3.20;;;2.90;;
18661;SDS011;61528;49.456;11.098;2022-07-17T03:43:31;3.50;;;3.20;;
18661;SDS011;61528;49.456;11.098;2022-07-17T03:45:57;5.83;;;3.47;;
18661;SDS011;61528;49.456;11.098;2022-07-17T03:48:24;3.73;;;3.33;;
18661;SDS011;61528;49.456;11.098;2022-07-17T03:50:50;5.17;;;3.40;;
18661;SDS011;61528;49.456;11.098;2022-07-17T03:53:16;3.63;;;2.70;;
18661;SDS011;61528;49.456;11.098;2022-07-17T03:55:43;3.40;;;3.10;;
18661;SDS011;61528;49.456;11.098;2022-07-17T03:58:09;3.80;;;2.87;;
18661;SDS011;61528;49.456;11.098;2022-07-17T04:00:35;3.97;;;2.73;;
18661;SDS011;61528;49.456;11.098;2022-07-17T04:03:01;3.40;;;2.70;;
18661;SDS011;61528;49.456;11.098;2022-07-17T04:05:27;3.67;;;3.20;;
18661;SDS011;61528;49.456;11.098;2022-07-17T04:07:53;5.40;;;3.07;;
18661;SDS011;61528;49.456;11.098;2022-07-17T04:10:20;3.87;;;3.00;;
18661;SDS011;61528;49.456;11.098;2022-07-17T04:12:46;3.07;;;2.77;;
18661;SDS011;61528;49.456;11.098;2022-07-17T04:15:13;4.10;;;2.73;;
18661;SDS011;61528;49.456;11.098;2022-07-17T04:17:59;4.00;;;2.50;;
18661;SDS011;61528;49.456;11.098;2022-07-17T04:20:25;4.73;;;2.90;;
18661;SDS011;61528;49.456;11.098;2022-07-17T04:22:51;3.50;;;2.60;;
18661;SDS011;61528;49.456;11.098;2022-07-17T04:25:18;2.93;;;2.60;;
18661;SDS011;61528;49.456;11.098;2022-07-17T04:27:44;2.97;;;2.50;;
18661;SDS011;61528;49.456;11.098;2022-07-17T04:30:11;2.57;;;2.10;;
18661;SDS011;61528;49.456;11.098;2022-07-17T04:32:37;2.57;;;2.33;;
18661;SDS011;61528;49.456;11.098;2022-07-17T04:35:03;3.20;;;2.00;;
18661;SDS011;61528;49.456;11.098;2022-07-17T04:37:29;2.63;;;2.40;;
18661;SDS011;61528;49.456;11.098;2022-07-17T04:39:57;3.17;;;2.13;;
18661;SDS011;61528;49.456;11.098;2022-07-17T04:42:23;3.20;;;2.30;;
18661;SDS011;61528;49.456;11.098;2022-07-17T04:44:49;2.40;;;2.20;;
18661;SDS011;61528;49.456;11.098;2022-07-17T04:47:15;3.30;;;2.37;;
18661;SDS011;61528;49.456;11.098;2022-07-17T04:49:41;4.00;;;2.50;;
18661;SDS011;61528;49.456;11.098;2022-07-17T04:52:08;3.37;;;2.40;;
18661;SDS011;61528;49.456;11.098;2022-07-17T04:54:34;3.13;;;2.27;;
18661;SDS011;61528;49.456;11.098;2022-07-17T04:57:00;6.33;;;2.33;;
18661;SDS011;61528;49.456;11.098;2022-07-17T04:59:26;2.13;;;1.93;;
18661;SDS011;61528;49.456;11.098;2022-07-17T05:01:52;2.30;;;2.10;;
18661;SDS011;61528;49.456;11.098;2022-07-17T05:04:19;3.07;;;2.10;;
18661;SDS011;61528;49.456;11.098;2022-07-17T05:06:46;4.00;;;2.10;;
18661;SDS011;61528;49.456;11.098;2022-07-17T05:09:12;3.60;;;1.93;;
18661;SDS011;61528;49.456;11.098;2022-07-17T05:11:38;4.40;;;2.23;;
18661;SDS011;61528;49.456;11.098;2022-07-17T05:14:05;7.77;;;2.30;;
18661;SDS011;61528;49.456;11.098;2022-07-17T05:16:31;4.50;;;2.17;;
18661;SDS011;61528;49.456;11.098;2022-07-17T05:18:57;4.87;;;2.10;;
18661;SDS011;61528;49.456;11.098;2022-07-17T05:21:23;5.50;;;1.93;;
18661;SDS011;61528;49.456;11.098;2022-07-17T05:23:49;4.03;;;1.80;;
18661;SDS011;61528;49.456;11.098;2022-07-17T05:26:16;2.77;;;2.00;;
18661;SDS011;61528;49.456;11.098;2022-07-17T05:28:42;3.07;;;2.10;;
18661;SDS011;61528;49.456;11.098;2022-07-17T05:31:08;2.23;;;1.93;;
18661;SDS011;61528;49.456;11.098;2022-07-17T05:33:34;2.40;;;1.93;;
18661;SDS011;61528;49.456;11.098;2022-07-17T05:36:00;2.53;;;1.80;;
18661;SDS011;61528;49.456;11.098;2022-07-17T05:38:27;2.37;;;1.73;;
18661;SDS011;61528;49.456;11.098;2022-07-17T05:40:53;2.70;;;1.70;;
18661;SDS011;61528;49.456;11.098;2022-07-17T05:43:19;1.80;;;1.70;;
18661;SDS011;61528;49.456;11.098;2022-07-17T05:45:45;3.30;;;1.77;;
18661;SDS011;61528;49.456;11.098;2022-07-17T05:48:11;5.90;;;1.80;;
18661;SDS011;61528;49.456;11.098;2022-07-17T05:50:37;3.43;;;1.77;;
18661;SDS011;61528;49.456;11.098;2022-07-17T05:53:04;4.50;;;1.97;;
18661;SDS011;61528;49.456;11.098;2022-07-17T05:55:30;5.00;;;1.90;;
18661;SDS011;61528;49.456;11.098;2022-07-17T05:57:56;2.90;;;1.57;;
18661;SDS011;61528;49.456;11.098;2022-07-17T06:00:22;2.73;;;1.40;;
18661;SDS011;61528;49.456;11.098;2022-07-17T06:02:49;2.73;;;1.33;;
18661;SDS011;61528;49.456;11.098;2022-07-17T06:05:15;6.43;;;1.50;;
18661;SDS011;61528;49.456;11.098;2022-07-17T06:07:41;4.83;;;1.93;;
18661;SDS011;61528;49.456;11.098;2022-07-17T06:10:07;4.17;;;1.63;;
18661;SDS011;61528;49.456;11.098;2022-07-17T06:12:33;2.87;;;1.50;;
18661;SDS011;61528;49.456;11.098;2022-07-17T06:15:00;3.67;;;1.50;;
18661;SDS011;61528;49.456;11.098;2022-07-17T06:17:26;5.70;;;1.70;;
18661;SDS011;61528;49.456;11.098;2022-07-17T06:19:53;4.27;;;1.40;;
18661;SDS011;61528;49.456;11.098;2022-07-17T06:22:19;4.00;;;1.47;;
18661;SDS011;61528;49.456;11.098;2022-07-17T06:24:46;3.47;;;1.73;;
18661;SDS011;61528;49.456;11.098;2022-07-17T06:27:13;2.37;;;1.40;;
18661;SDS011;61528;49.456;11.098;2022-07-17T06:29:40;3.93;;;1.47;;
18661;SDS011;61528;49.456;11.098;2022-07-17T06:32:06;3.77;;;1.40;;
18661;SDS011;61528;49.456;11.098;2022-07-17T06:34:32;5.43;;;1.30;;
18661;SDS011;61528;49.456;11.098;2022-07-17T06:36:59;3.10;;;1.10;;
18661;SDS011;61528;49.456;11.098;2022-07-17T06:39:25;1.97;;;1.10;;
18661;SDS011;61528;49.456;11.098;2022-07-17T06:41:51;6.27;;;2.07;;
18661;SDS011;61528;49.456;11.098;2022-07-17T06:44:17;3.43;;;1.80;;
18661;SDS011;61528;49.456;11.098;2022-07-17T06:46:43;4.83;;;1.60;;
18661;SDS011;61528;49.456;11.098;2022-07-17T06:49:09;3.03;;;1.60;;
18661;SDS011;61528;49.456;11.098;2022-07-17T06:51:36;3.13;;;1.30;;
18661;SDS011;61528;49.456;11.098;2022-07-17T06:54:02;4.43;;;1.30;;
18661;SDS011;61528;49.456;11.098;2022-07-17T06:56:28;2.73;;;1.23;;
18661;SDS011;61528;49.456;11.098;2022-07-17T06:58:55;5.47;;;1.50;;
18661;SDS011;61528;49.456;11.098;2022-07-17T07:01:21;2.10;;;1.20;;
18661;SDS011;61528;49.456;11.098;2022-07-17T07:03:47;1.80;;;1.50;;
18661;SDS011;61528;49.456;11.098;2022-07-17T07:06:13;2.47;;;1.40;;
18661;SDS011;61528;49.456;11.098;2022-07-17T07:08:40;2.73;;;1.30;;
18661;SDS011;61528;49.456;11.098;2022-07-17T07:11:06;2.73;;;1.20;;
18661;SDS011;61528;49.456;11.098;2022-07-17T07:13:32;2.77;;;1.20;;
18661;SDS011;61528;49.456;11.098;2022-07-17T07:15:58;5.30;;;1.87;;
18661;SDS011;61528;49.456;11.098;2022-07-17T07:18:25;3.07;;;1.60;;
18661;SDS011;61528;49.456;11.098;2022-07-17T07:20:52;2.03;;;1.13;;
18661;SDS011;61528;49.456;11.098;2022-07-17T07:23:18;3.20;;;1.10;;
18661;SDS011;61528;49.456;11.098;2022-07-17T07:25:45;4.07;;;1.20;;
18661;SDS011;61528;49.456;11.098;2022-07-17T07:28:12;1.83;;;1.20;;
18661;SDS011;61528;49.456;11.098;2022-07-17T07:30:38;3.13;;;1.30;;
18661;SDS011;61528;49.456;11.098;2022-07-17T07:33:04;3.83;;;1.43;;
18661;SDS011;61528;49.456;11.098;2022-07-17T07:35:30;1.80;;;1.30;;
18661;SDS011;61528;49.456;11.098;2022-07-17T07:37:56;3.30;;;1.47;;
18661;SDS011;61528;49.456;11.098;2022-07-17T07:40:23;3.07;;;1.50;;
18661;SDS011;61528;49.456;11.098;2022-07-17T07:42:49;1.70;;;1.07;;
18661;SDS011;61528;49.456;11.098;2022-07-17T07:45:16;3.10;;;1.30;;
18661;SDS011;61528;49.456;11.098;2022-07-17T07:47:43;2.90;;;1.23;;
18661;SDS011;61528;49.456;11.098;2022-07-17T07:50:10;1.93;;;1.10;;
18661;SDS011;61528;49.456;11.098;2022-07-17T07:52:37;2.70;;;1.20;;
18661;SDS011;61528;49.456;11.098;2022-07-17T07:55:03;2.73;;;1.13;;
18661;SDS011;61528;49.456;11.098;2022-07-17T07:57:30;1.83;;;1.00;;
18661;SDS011;61528;49.456;11.098;2022-07-17T07:59:56;5.03;;;1.30;;
18661;SDS011;61528;49.456;11.098;2022-07-17T08:02:22;2.50;;;1.37;;
18661;SDS011;61528;49.456;11.098;2022-07-17T08:04:49;2.00;;;1.10;;
18661;SDS011;61528;49.456;11.098;2022-07-17T08:07:15;2.93;;;1.30;;
18661;SDS011;61528;49.456;11.098;2022-07-17T08:09:41;5.40;;;4.33;;
18661;SDS011;61528;49.456;11.098;2022-07-17T08:12:08;3.00;;;1.20;;
18661;SDS011;61528;49.456;11.098;2022-07-17T08:14:34;2.10;;;1.30;;
18661;SDS011;61528;49.456;11.098;2022-07-17T08:17:01;3.57;;;1.20;;
18661;SDS011;61528;49.456;11.098;2022-07-17T08:19:27;3.03;;;1.70;;
18661;SDS011;61528;49.456;11.098;2022-07-17T08:21:53;1.73;;;1.20;;
18661;SDS011;61528;49.456;11.098;2022-07-17T08:24:20;2.50;;;1.40;;
18661;SDS011;61528;49.456;11.098;2022-07-17T08:26:46;4.40;;;1.50;;
18661;SDS011;61528;49.456;11.098;2022-07-17T08:29:12;2.07;;;1.27;;
18661;SDS011;61528;49.456;11.098;2022-07-17T08:31:41;4.27;;;1.40;;
18661;SDS011;61528;49.456;11.098;2022-07-17T08:34:08;3.67;;;1.40;;
18661;SDS011;61528;49.456;11.098;2022-07-17T08:36:35;1.43;;;1.00;;
18661;SDS011;61528;49.456;11.098;2022-07-17T08:39:01;1.87;;;1.17;;
18661;SDS011;61528;49.456;11.098;2022-07-17T08:41:28;2.50;;;1.13;;
18661;SDS011;61528;49.456;11.098;2022-07-17T08:43:54;2.10;;;1.10;;
18661;SDS011;61528;49.456;11.098;2022-07-17T08:46:24;2.60;;;1.60;;
18661;SDS011;61528;49.456;11.098;2022-07-17T08:48:52;3.20;;;1.20;;
18661;SDS011;61528;49.456;11.098;2022-07-17T08:51:22;1.87;;;1.40;;
18661;SDS011;61528;49.456;11.098;2022-07-17T08:53:50;1.57;;;1.10;;
18661;SDS011;61528;49.456;11.098;2022-07-17T08:56:16;1.97;;;1.30;;
18661;SDS011;61528;49.456;11.098;2022-07-17T08:58:43;2.47;;;1.30;;
18661;SDS011;61528;49.456;11.098;2022-07-17T09:01:13;3.03;;;1.30;;
18661;SDS011;61528;49.456;11.098;2022-07-17T09:03:39;3.20;;;1.20;;
18661;SDS011;61528;49.456;11.098;2022-07-17T09:06:21;5.30;;;1.37;;
18661;SDS011;61528;49.456;11.098;2022-07-17T09:08:47;3.47;;;1.47;;
18661;SDS011;61528;49.456;11.098;2022-07-17T09:11:14;2.40;;;1.50;;
18661;SDS011;61528;49.456;11.098;2022-07-17T09:13:45;3.27;;;1.20;;
18661;SDS011;61528;49.456;11.098;2022-07-17T09:16:14;2.43;;;1.00;;
18661;SDS011;61528;49.456;11.098;2022-07-17T09:18:48;3.00;;;1.17;;
18661;SDS011;61528;49.456;11.098;2022-07-17T09:21:21;3.30;;;1.37;;
18661;SDS011;61528;49.456;11.098;2022-07-17T09:24:08;5.20;;;1.50;;
18661;SDS011;61528;49.456;11.098;2022-07-17T09:26:34;2.40;;;1.30;;
18661;SDS011;61528;49.456;11.098;2022-07-17T09:29:03;2.70;;;1.20;;
18661;SDS011;61528;49.456;11.098;2022-07-17T09:31:30;2.27;;;1.10;;
18661;SDS011;61528;49.456;11.098;2022-07-17T09:33:57;3.90;;;1.40;;
18661;SDS011;61528;49.456;11.098;2022-07-17T09:36:24;3.23;;;1.73;;
18661;SDS011;61528;49.456;11.098;2022-07-17T09:38:55;2.67;;;1.40;;
18661;SDS011;61528;49.456;11.098;2022-07-17T09:41:22;2.90;;;1.20;;
18661;SDS011;61528;49.456;11.098;2022-07-17T09:43:52;5.03;;;1.20;;
18661;SDS011;61528;49.456;11.098;2022-07-17T09:46:25;3.70;;;1.30;;
18661;SDS011;61528;49.456;11.098;2022-07-17T09:48:53;2.33;;;1.20;;
18661;SDS011;61528;49.456;11.098;2022-07-17T09:51:21;1.60;;;1.10;;
18661;SDS011;61528;49.456;11.098;2022-07-17T09:53:48;2.87;;;1.13;;
18661;SDS011;61528;49.456;11.098;2022-07-17T09:56:16;2.17;;;1.10;;
18661;SDS011;61528;49.456;11.098;2022-07-17T09:58:43;1.03;;;1.00;;
18661;SDS011;61528;49.456;11.098;2022-07-17T10:01:13;1.57;;;1.30;;
18661;SDS011;61528;49.456;11.098;2022-07-17T10:03:40;4.07;;;1.33;;
18661;SDS011;61528;49.456;11.098;2022-07-17T10:06:07;3.47;;;1.40;;
18661;SDS011;61528;49.456;11.098;2022-07-17T10:08:33;2.70;;;1.40;;
18661;SDS011;61528;49.456;11.098;2022-07-17T10:11:01;4.03;;;1.67;;
18661;SDS011;61528;49.456;11.098;2022-07-17T10:13:30;2.03;;;1.27;;
18661;SDS011;61528;49.456;11.098;2022-07-17T10:15:56;2.40;;;1.33;;
18661;SDS011;61528;49.456;11.098;2022-07-17T10:18:33;4.20;;;1.20;;
18661;SDS011;61528;49.456;11.098;2022-07-17T10:21:33;2.73;;;1.30;;
18661;SDS011;61528;49.456;11.098;2022-07-17T10:26:38;2.23;;;1.23;;
18661;SDS011;61528;49.456;11.098;2022-07-17T10:31:50;3.83;;;1.50;;
18661;SDS011;61528;49.456;11.098;2022-07-17T10:34:17;2.50;;;1.30;;
18661;SDS011;61528;49.456;11.098;2022-07-17T10:36:43;1.83;;;1.20;;
18661;SDS011;61528;49.456;11.098;2022-07-17T10:39:17;3.27;;;1.17;;
18661;SDS011;61528;49.456;11.098;2022-07-17T10:41:54;2.63;;;1.33;;
18661;SDS011;61528;49.456;11.098;2022-07-17T10:44:27;2.47;;;1.10;;
18661;SDS011;61528;49.456;11.098;2022-07-17T10:46:56;2.63;;;1.33;;
18661;SDS011;61528;49.456;11.098;2022-07-17T10:49:23;2.37;;;1.20;;
18661;SDS011;61528;49.456;11.098;2022-07-17T10:51:49;2.67;;;1.20;;
18661;SDS011;61528;49.456;11.098;2022-07-17T10:54:19;2.40;;;1.20;;
18661;SDS011;61528;49.456;11.098;2022-07-17T10:56:45;2.83;;;1.37;;
18661;SDS011;61528;49.456;11.098;2022-07-17T10:59:12;1.57;;;1.10;;
18661;SDS011;61528;49.456;11.098;2022-07-17T11:01:38;1.50;;;1.20;;
18661;SDS011;61528;49.456;11.098;2022-07-17T11:04:05;4.50;;;1.30;;
18661;SDS011;61528;49.456;11.098;2022-07-17T11:06:32;2.40;;;1.20;;
18661;SDS011;61528;49.456;11.098;2022-07-17T11:08:59;2.53;;;1.20;;
18661;SDS011;61528;49.456;11.098;2022-07-17T11:14:15;3.73;;;1.40;;
18661;SDS011;61528;49.456;11.098;2022-07-17T11:16:50;1.40;;;1.10;;
18661;SDS011;61528;49.456;11.098;2022-07-17T11:19:24;1.63;;;1.30;;
18661;SDS011;61528;49.456;11.098;2022-07-17T11:21:51;2.40;;;1.40;;
18661;SDS011;61528;49.456;11.098;2022-07-17T11:24:17;2.80;;;1.20;;
18661;SDS011;61528;49.456;11.098;2022-07-17T11:26:44;3.13;;;1.70;;
18661;SDS011;61528;49.456;11.098;2022-07-17T11:29:10;2.17;;;1.10;;
18661;SDS011;61528;49.456;11.098;2022-07-17T11:31:37;2.80;;;1.10;;
18661;SDS011;61528;49.456;11.098;2022-07-17T11:34:06;3.33;;;1.10;;
18661;SDS011;61528;49.456;11.098;2022-07-17T11:36:35;2.60;;;1.07;;
18661;SDS011;61528;49.456;11.098;2022-07-17T11:39:03;2.50;;;1.10;;
18661;SDS011;61528;49.456;11.098;2022-07-17T11:41:31;3.80;;;1.20;;
18661;SDS011;61528;49.456;11.098;2022-07-17T11:43:57;2.27;;;1.10;;
18661;SDS011;61528;49.456;11.098;2022-07-17T11:46:24;2.60;;;1.27;;
18661;SDS011;61528;49.456;11.098;2022-07-17T11:48:51;4.37;;;2.40;;
18661;SDS011;61528;49.456;11.098;2022-07-17T11:51:17;2.90;;;1.20;;
18661;SDS011;61528;49.456;11.098;2022-07-17T11:53:43;2.47;;;1.30;;
18661;SDS011;61528;49.456;11.098;2022-07-17T11:56:18;2.03;;;1.40;;
18661;SDS011;61528;49.456;11.098;2022-07-17T11:58:45;2.27;;;1.20;;
18661;SDS011;61528;49.456;11.098;2022-07-17T12:01:13;1.67;;;1.03;;
18661;SDS011;61528;49.456;11.098;2022-07-17T12:03:40;2.53;;;1.27;;
18661;SDS011;61528;49.456;11.098;2022-07-17T12:06:06;1.60;;;1.10;;
18661;SDS011;61528;49.456;11.098;2022-07-17T12:08:33;1.47;;;1.20;;
18661;SDS011;61528;49.456;11.098;2022-07-17T12:11:02;1.73;;;1.03;;
18661;SDS011;61528;49.456;11.098;2022-07-17T12:13:43;3.20;;;1.23;;
18661;SDS011;61528;49.456;11.098;2022-07-17T12:16:22;2.53;;;1.10;;
18661;SDS011;61528;49.456;11.098;2022-07-17T12:18:55;4.37;;;1.53;;
18661;SDS011;61528;49.456;11.098;2022-07-17T12:21:23;2.13;;;1.00;;
18661;SDS011;61528;49.456;11.098;2022-07-17T12:23:56;1.93;;;1.20;;
18661;SDS011;61528;49.456;11.098;2022-07-17T12:26:24;3.77;;;1.50;;
18661;SDS011;61528;49.456;11.098;2022-07-17T12:28:50;1.90;;;1.00;;
18661;SDS011;61528;49.456;11.098;2022-07-17T12:31:16;2.30;;;1.13;;
18661;SDS011;61528;49.456;11.098;2022-07-17T12:33:42;1.57;;;1.03;;
18661;SDS011;61528;49.456;11.098;2022-07-17T12:36:09;1.87;;;1.00;;
18661;SDS011;61528;49.456;11.098;2022-07-17T12:38:35;2.60;;;1.30;;
18661;SDS011;61528;49.456;11.098;2022-07-17T12:41:01;1.63;;;0.90;;
18661;SDS011;61528;49.456;11.098;2022-07-17T12:43:27;2.00;;;1.07;;
18661;SDS011;61528;49.456;11.098;2022-07-17T12:45:52;1.40;;;1.00;;
18661;SDS011;61528;49.456;11.098;2022-07-17T12:48:19;1.77;;;1.00;;
18661;SDS011;61528;49.456;11.098;2022-07-17T12:50:44;2.93;;;1.20;;
18661;SDS011;61528;49.456;11.098;2022-07-17T12:53:11;1.30;;;0.90;;
18661;SDS011;61528;49.456;11.098;2022-07-17T12:55:37;2.23;;;1.00;;
18661;SDS011;61528;49.456;11.098;2022-07-17T12:58:03;3.60;;;1.33;;
18661;SDS011;61528;49.456;11.098;2022-07-17T13:00:29;2.63;;;1.27;;
18661;SDS011;61528;49.456;11.098;2022-07-17T13:02:55;1.60;;;1.20;;
18661;SDS011;61528;49.456;11.098;2022-07-17T13:05:21;2.70;;;1.10;;
18661;SDS011;61528;49.456;11.098;2022-07-17T13:07:48;1.47;;;1.10;;
18661;SDS011;61528;49.456;11.098;2022-07-17T13:10:15;1.97;;;1.20;;
18661;SDS011;61528;49.456;11.098;2022-07-17T13:12:42;2.60;;;1.10;;
18661;SDS011;61528;49.456;11.098;2022-07-17T13:15:08;1.50;;;0.97;;
18661;SDS011;61528;49.456;11.098;2022-07-17T13:17:35;2.50;;;1.00;;
18661;SDS011;61528;49.456;11.098;2022-07-17T13:20:02;1.63;;;1.00;;
18661;SDS011;61528;49.456;11.098;2022-07-17T13:22:29;1.50;;;1.27;;
18661;SDS011;61528;49.456;11.098;2022-07-17T13:24:55;1.00;;;0.90;;
18661;SDS011;61528;49.456;11.098;2022-07-17T13:27:21;1.47;;;1.20;;
18661;SDS011;61528;49.456;11.098;2022-07-17T13:29:47;1.17;;;1.00;;
18661;SDS011;61528;49.456;11.098;2022-07-17T13:32:13;3.43;;;1.03;;
18661;SDS011;61528;49.456;11.098;2022-07-17T13:34:40;2.13;;;1.20;;
18661;SDS011;61528;49.456;11.098;2022-07-17T13:37:06;1.77;;;1.00;;
18661;SDS011;61528;49.456;11.098;2022-07-17T13:39:33;1.93;;;1.20;;
18661;SDS011;61528;49.456;11.098;2022-07-17T13:42:00;2.37;;;1.30;;
18661;SDS011;61528;49.456;11.098;2022-07-17T13:44:26;4.13;;;1.20;;
18661;SDS011;61528;49.456;11.098;2022-07-17T13:46:52;2.37;;;0.90;;
18661;SDS011;61528;49.456;11.098;2022-07-17T13:49:19;1.67;;;1.10;;
18661;SDS011;61528;49.456;11.098;2022-07-17T13:51:45;2.77;;;1.43;;
18661;SDS011;61528;49.456;11.098;2022-07-17T13:54:11;2.93;;;1.20;;
18661;SDS011;61528;49.456;11.098;2022-07-17T13:56:38;2.80;;;1.00;;
18661;SDS011;61528;49.456;11.098;2022-07-17T13:59:03;1.90;;;1.00;;
18661;SDS011;61528;49.456;11.098;2022-07-17T14:01:29;1.93;;;1.20;;
18661;SDS011;61528;49.456;11.098;2022-07-17T14:03:55;2.17;;;0.80;;
18661;SDS011;61528;49.456;11.098;2022-07-17T14:06:21;1.20;;;0.87;;
18661;SDS011;61528;49.456;11.098;2022-07-17T14:08:47;1.43;;;0.93;;
18661;SDS011;61528;49.456;11.098;2022-07-17T14:14:13;2.53;;;0.80;;
18661;SDS011;61528;49.456;11.098;2022-07-17T14:16:39;1.73;;;1.00;;
18661;SDS011;61528;49.456;11.098;2022-07-17T14:19:05;1.63;;;0.77;;
18661;SDS011;61528;49.456;11.098;2022-07-17T14:21:33;0.82;;;0.80;;
18661;SDS011;61528;49.456;11.098;2022-07-17T14:23:59;2.50;;;1.02;;
18661;SDS011;61528;49.456;11.098;2022-07-17T14:26:26;2.60;;;1.20;;
18661;SDS011;61528;49.456;11.098;2022-07-17T14:28:52;1.20;;;0.85;;
18661;SDS011;61528;49.456;11.098;2022-07-17T14:31:18;1.60;;;0.88;;
18661;SDS011;61528;49.456;11.098;2022-07-17T14:33:45;3.47;;;1.20;;
18661;SDS011;61528;49.456;11.098;2022-07-17T14:36:12;0.90;;;0.80;;
18661;SDS011;61528;49.456;11.098;2022-07-17T14:38:38;2.92;;;1.10;;
18661;SDS011;61528;49.456;11.098;2022-07-17T14:41:05;1.00;;;0.90;;
18661;SDS011;61528;49.456;11.098;2022-07-17T14:43:32;1.55;;;0.90;;